createdAt,value
2018-09-30T00:02:24.132Z,4.60
2018-09-30T00:04:53.173Z,4.36
2018-09-30T00:07:22.208Z,4.25
2018-09-30T00:15:02.751Z,4.20
2018-09-30T00:17:31.786Z,4.19
2018-09-30T00:20:00.817Z,4.19
2018-09-30T00:30:17.125Z,4.37
2018-09-30T00:32:46.162Z,4.34
2018-09-30T00:37:51.923Z,3.96
2018-09-30T00:40:20.953Z,3.93
2018-09-30T00:42:50.000Z,3.87
2018-09-30T00:47:55.721Z,3.92
2018-09-30T00:50:24.751Z,3.86
2018-09-30T00:52:53.788Z,3.70
2018-09-30T00:55:22.817Z,3.71
2018-09-30T00:57:51.863Z,3.76
2018-09-30T01:02:56.587Z,3.84
2018-09-30T01:05:27.578Z,3.74
2018-09-30T01:07:56.623Z,3.66
2018-09-30T01:10:25.670Z,3.63
2018-09-30T01:12:54.704Z,3.65
2018-09-30T01:15:23.728Z,3.74
2018-09-30T01:17:52.778Z,3.74
2018-09-30T01:20:21.812Z,3.67
2018-09-30T01:22:50.852Z,3.69
2018-09-30T01:25:19.883Z,3.57
2018-09-30T01:27:48.908Z,3.77
2018-09-30T01:30:18.844Z,3.56
2018-09-30T01:32:47.881Z,3.50
2018-09-30T01:35:18.921Z,3.45
2018-09-30T01:37:47.954Z,3.43
2018-09-30T01:40:17.077Z,3.44
2018-09-30T01:42:46.079Z,3.30
2018-09-30T01:45:15.140Z,3.26
2018-09-30T01:47:44.181Z,3.30
2018-09-30T01:50:13.233Z,3.26
2018-09-30T01:55:17.508Z,3.26
2018-09-30T01:57:46.543Z,3.30
2018-09-30T02:00:16.572Z,3.28
2018-09-30T02:02:47.640Z,3.51
2018-09-30T02:05:16.655Z,3.65
2018-09-30T02:07:45.695Z,3.21
2018-09-30T02:14:09.173Z,3.12
2018-09-30T02:19:14.946Z,2.86
2018-09-30T02:21:44.952Z,2.83
2018-09-30T02:24:14.012Z,2.62
2018-09-30T02:26:43.147Z,2.66
2018-09-30T02:29:13.185Z,2.63
2018-09-30T02:31:42.220Z,2.58
2018-09-30T02:34:11.260Z,2.64
2018-09-30T02:36:40.362Z,2.85
2018-09-30T02:39:09.433Z,2.90
2018-09-30T02:41:38.469Z,2.80
2018-09-30T02:44:07.499Z,2.75
2018-09-30T02:46:36.565Z,2.73
2018-09-30T02:49:05.726Z,2.76
2018-09-30T02:51:34.826Z,2.84
2018-09-30T02:54:03.837Z,2.84
2018-09-30T02:56:33.889Z,2.91
2018-09-30T02:59:02.930Z,3.05
2018-09-30T03:01:32.929Z,2.88
2018-09-30T03:04:02.113Z,2.85
2018-09-30T03:06:33.093Z,2.84
2018-09-30T03:09:07.681Z,2.92
2018-09-30T03:11:36.756Z,2.98
2018-09-30T03:14:05.791Z,2.97
2018-09-30T03:16:35.800Z,2.82
2018-09-30T03:19:05.868Z,2.51
2018-09-30T03:21:34.921Z,2.47
2018-09-30T03:24:04.932Z,2.45
2018-09-30T03:26:33.965Z,2.43
2018-09-30T03:29:03.026Z,2.54
2018-09-30T03:31:33.038Z,2.74
2018-09-30T03:34:03.992Z,2.59
2018-09-30T03:36:33.021Z,2.58
2018-09-30T03:39:02.058Z,2.46
2018-09-30T03:41:31.120Z,2.53
2018-09-30T03:44:00.162Z,2.42
2018-09-30T03:49:04.889Z,2.40
2018-09-30T03:51:34.857Z,2.41
2018-09-30T03:54:04.940Z,2.20
2018-09-30T03:56:34.952Z,2.18
2018-09-30T03:59:04.209Z,2.32
2018-09-30T04:01:33.249Z,2.27
2018-09-30T04:04:02.313Z,2.30
2018-09-30T04:06:31.341Z,2.36
2018-09-30T04:09:01.321Z,2.53
2018-09-30T04:11:30.350Z,2.52
2018-09-30T04:13:59.393Z,2.76
2018-09-30T04:16:32.703Z,2.92
2018-09-30T04:19:02.658Z,2.78
2018-09-30T04:21:32.652Z,2.59
2018-09-30T04:24:01.711Z,2.53
2018-09-30T04:26:32.734Z,2.47
2018-09-30T04:29:03.765Z,2.78
2018-09-30T04:31:33.755Z,2.69
2018-09-30T04:34:02.825Z,2.76
2018-09-30T04:36:34.824Z,2.72
2018-09-30T04:39:03.862Z,2.66
2018-09-30T04:41:32.936Z,2.46
2018-09-30T04:44:01.944Z,2.47
2018-09-30T04:46:31.385Z,2.59
2018-09-30T04:49:00.416Z,2.66
2018-09-30T04:51:30.432Z,2.69
2018-09-30T04:53:59.464Z,2.75
2018-09-30T04:56:28.499Z,2.74
2018-09-30T04:58:57.535Z,2.67
2018-09-30T05:01:26.589Z,2.52
2018-09-30T05:03:55.625Z,2.44
2018-09-30T05:06:25.652Z,2.54
2018-09-30T05:08:54.683Z,2.51
2018-09-30T05:11:23.728Z,2.50
2018-09-30T05:13:52.765Z,2.55
2018-09-30T05:18:57.609Z,2.63
2018-09-30T05:21:32.339Z,2.72
2018-09-30T05:24:01.641Z,2.73
2018-09-30T05:26:30.671Z,2.89
2018-09-30T05:28:59.744Z,2.86
2018-09-30T05:31:28.764Z,2.72
2018-09-30T05:33:57.793Z,2.65
2018-09-30T05:36:26.998Z,2.72
2018-09-30T05:41:31.747Z,2.84
2018-09-30T05:44:00.788Z,2.82
2018-09-30T05:49:06.617Z,3.06
2018-09-30T05:51:38.826Z,3.24
2018-09-30T05:54:08.951Z,3.31
2018-09-30T05:56:39.198Z,3.35
2018-09-30T05:59:08.234Z,3.50
2018-09-30T06:01:38.209Z,3.86
2018-09-30T06:06:42.993Z,4.12
2018-09-30T06:09:12.118Z,4.17
2018-09-30T06:11:49.304Z,4.12
2018-09-30T06:14:18.454Z,4.24
2018-09-30T06:16:47.389Z,4.44
2018-09-30T06:19:16.479Z,4.66
2018-09-30T06:21:47.392Z,4.69
2018-09-30T06:24:16.652Z,4.54
2018-09-30T06:29:24.901Z,4.83
2018-09-30T06:31:53.973Z,4.96
2018-09-30T06:34:22.985Z,5.14
2018-09-30T06:36:53.038Z,5.13
2018-09-30T06:39:22.068Z,5.17
2018-09-30T06:41:51.204Z,5.30
2018-09-30T06:46:56.057Z,5.61
2018-09-30T06:49:25.104Z,6.03
2018-09-30T06:51:55.116Z,6.15
2018-09-30T06:54:24.192Z,6.40
2018-09-30T06:59:33.013Z,7.05
2018-09-30T07:02:02.050Z,7.39
2018-09-30T07:04:31.169Z,7.69
2018-09-30T07:07:00.277Z,7.86
2018-09-30T07:09:29.310Z,8.08
2018-09-30T07:11:59.329Z,8.05
2018-09-30T07:14:36.117Z,8.15
2018-09-30T07:19:40.993Z,8.50
2018-09-30T07:22:10.069Z,8.45
2018-09-30T07:30:01.461Z,8.46
2018-09-30T07:32:31.465Z,8.55
2018-09-30T07:35:00.493Z,8.81
2018-09-30T07:37:31.493Z,8.91
2018-09-30T07:40:01.514Z,9.39
2018-09-30T07:42:40.152Z,9.80
2018-09-30T07:45:09.188Z,10.04
2018-09-30T07:47:38.299Z,10.16
2018-09-30T07:50:07.316Z,10.59
2018-09-30T07:52:36.444Z,10.76
2018-09-30T07:55:05.420Z,10.91
2018-09-30T07:57:34.451Z,10.54
2018-09-30T08:00:03.513Z,10.89
2018-09-30T08:02:32.972Z,11.01
2018-09-30T08:07:37.789Z,11.91
2018-09-30T08:10:06.821Z,12.08
2018-09-30T08:12:35.865Z,12.36
2018-09-30T08:15:04.913Z,12.57
2018-09-30T08:17:34.902Z,12.98
2018-09-30T08:20:05.025Z,13.03
2018-09-30T08:22:34.290Z,12.94
2018-09-30T08:25:03.778Z,13.13
2018-09-30T08:28:18.474Z,13.54
2018-09-30T08:30:47.543Z,13.95
2018-09-30T08:33:21.782Z,13.99
2018-09-30T08:35:51.878Z,14.39
2018-09-30T08:38:20.913Z,14.84
2018-09-30T08:40:49.994Z,14.91
2018-09-30T08:43:26.111Z,15.01
2018-09-30T08:45:55.257Z,15.54
2018-09-30T08:48:24.229Z,16.01
2018-09-30T08:50:53.303Z,17.75
2018-09-30T08:53:23.284Z,18.65
2018-09-30T08:55:52.399Z,20.16
2018-09-30T08:58:22.405Z,21.78
2018-09-30T09:00:52.425Z,22.43
2018-09-30T09:03:21.493Z,22.74
2018-09-30T09:05:50.548Z,24.15
2018-09-30T09:08:23.015Z,26.31
2018-09-30T09:13:27.913Z,28.24
2018-09-30T09:15:58.002Z,28.17
2018-09-30T09:18:28.000Z,28.54
2018-09-30T09:23:32.937Z,28.86
2018-09-30T09:26:01.992Z,29.74
2018-09-30T09:28:31.232Z,29.88
2018-09-30T09:31:00.331Z,31.66
2018-09-30T09:33:29.374Z,28.92
2018-09-30T09:35:58.492Z,27.27
2018-09-30T09:38:27.599Z,29.91
2018-09-30T09:40:56.612Z,28.92
2018-09-30T09:43:25.674Z,26.24
2018-09-30T09:45:54.746Z,23.25
2018-09-30T09:48:23.816Z,25.33
2018-09-30T09:50:52.885Z,25.23
2018-09-30T09:53:21.953Z,26.38
2018-09-30T09:55:51.008Z,28.61
2018-09-30T09:58:20.065Z,29.47
2018-09-30T10:00:49.128Z,29.53
2018-09-30T10:03:18.185Z,30.13
2018-09-30T10:05:47.386Z,25.25
2018-09-30T10:08:17.381Z,28.91
2018-09-30T10:10:48.402Z,30.47
2018-09-30T10:13:17.557Z,32.79
2018-09-30T10:15:52.136Z,34.29
2018-09-30T10:18:21.208Z,34.01
2018-09-30T10:20:50.260Z,34.58
2018-09-30T10:23:20.258Z,35.74
2018-09-30T10:25:49.305Z,37.30
2018-09-30T10:28:18.391Z,36.74
2018-09-30T10:30:48.389Z,35.38
2018-09-30T10:33:17.433Z,34.93
2018-09-30T10:35:46.489Z,34.88
2018-09-30T10:38:15.731Z,30.66
2018-09-30T10:40:44.784Z,33.38
2018-09-30T10:43:13.840Z,34.84
2018-09-30T10:48:18.837Z,35.62
2018-09-30T10:50:47.929Z,35.61
2018-09-30T10:53:17.018Z,36.07
2018-09-30T10:55:46.071Z,35.27
2018-09-30T10:58:16.337Z,35.50
2018-09-30T11:00:45.548Z,36.67
2018-09-30T11:03:14.594Z,37.09
2018-09-30T11:05:43.643Z,36.30
2018-09-30T11:08:13.082Z,35.20
2018-09-30T11:10:42.345Z,36.05
2018-09-30T11:13:11.453Z,33.86
2018-09-30T11:15:40.507Z,35.25
2018-09-30T11:18:09.631Z,31.52
2018-09-30T11:23:14.520Z,35.94
2018-09-30T11:28:19.313Z,38.75
2018-09-30T11:30:48.383Z,35.49
2018-09-30T11:33:17.464Z,36.01
2018-09-30T11:35:46.522Z,38.14
2018-09-30T11:40:51.456Z,35.95
2018-09-30T11:43:20.546Z,36.93
2018-09-30T11:45:49.614Z,35.01
2018-09-30T11:48:18.680Z,34.15
2018-09-30T11:50:47.733Z,29.97
2018-09-30T11:53:16.854Z,33.08
2018-09-30T11:58:22.725Z,36.10
2018-09-30T12:00:55.382Z,38.67
2018-09-30T12:03:24.947Z,38.18
2018-09-30T12:05:53.990Z,35.10
2018-09-30T12:08:23.058Z,35.61
2018-09-30T12:10:52.126Z,34.49
2018-09-30T12:13:21.180Z,29.52
2018-09-30T12:15:50.243Z,29.84
2018-09-30T12:18:19.293Z,31.14
2018-09-30T12:23:24.160Z,37.51
2018-09-30T12:25:57.011Z,38.39
2018-09-30T12:28:26.054Z,35.88
2018-09-30T12:36:08.701Z,37.68
2018-09-30T12:38:37.773Z,38.20
2018-09-30T12:41:13.821Z,38.64
2018-09-30T12:43:42.848Z,37.15
2018-09-30T12:46:14.092Z,33.05
2018-09-30T12:48:43.140Z,29.31
2018-09-30T12:51:12.211Z,31.73
2018-09-30T12:53:41.261Z,33.35
2018-09-30T12:56:10.345Z,36.52
2018-09-30T12:58:39.413Z,36.93
2018-09-30T13:03:44.364Z,39.02
2018-09-30T13:06:13.424Z,38.26
2018-09-30T13:08:43.491Z,38.79
2018-09-30T13:11:12.674Z,35.61
2018-09-30T13:13:41.724Z,36.03
2018-09-30T13:16:10.794Z,37.14
2018-09-30T13:18:44.546Z,38.33
2018-09-30T13:21:13.591Z,39.11
2018-09-30T13:23:42.639Z,38.86
2018-09-30T13:26:14.988Z,39.39
2018-09-30T13:28:45.002Z,39.97
2018-09-30T13:31:14.103Z,39.49
2018-09-30T13:33:44.039Z,36.10
2018-09-30T13:36:14.270Z,38.67
2018-09-30T13:38:45.225Z,37.80
2018-09-30T13:41:14.411Z,37.89
2018-09-30T13:43:43.375Z,35.43
2018-09-30T13:46:17.540Z,38.28
2018-09-30T13:48:46.573Z,39.13
2018-09-30T13:51:15.665Z,40.32
2018-09-30T13:53:50.047Z,40.96
2018-09-30T13:56:23.136Z,39.89
2018-09-30T13:58:52.177Z,38.32
2018-09-30T14:03:58.143Z,39.83
2018-09-30T14:06:27.194Z,38.77
2018-09-30T14:08:56.249Z,36.92
2018-09-30T14:11:25.324Z,37.74
2018-09-30T14:13:54.384Z,38.04
2018-09-30T14:16:23.436Z,34.92
2018-09-30T14:18:53.397Z,37.57
2018-09-30T14:21:22.453Z,38.40
2018-09-30T14:26:27.395Z,38.79
2018-09-30T14:28:57.533Z,38.11
2018-09-30T14:34:03.000Z,38.46
2018-09-30T14:36:32.918Z,37.63
2018-09-30T14:41:38.749Z,37.60
2018-09-30T14:44:09.849Z,35.72
2018-09-30T14:46:38.904Z,35.19
2018-09-30T14:49:07.987Z,35.29
2018-09-30T14:51:37.029Z,35.17
2018-09-30T14:54:06.292Z,34.17
2018-09-30T14:56:35.154Z,33.43
2018-09-30T14:59:04.225Z,32.31
2018-09-30T15:01:34.208Z,31.43
2018-09-30T15:06:39.107Z,28.95
2018-09-30T15:09:08.261Z,27.84
2018-09-30T15:14:14.138Z,27.26
2018-09-30T15:16:44.141Z,26.55
2018-09-30T15:19:13.273Z,26.77
2018-09-30T15:21:42.325Z,26.59
2018-09-30T15:26:47.169Z,25.92
2018-09-30T15:29:16.234Z,25.36
2018-09-30T15:31:45.303Z,25.38
2018-09-30T15:34:14.348Z,25.44
2018-09-30T15:36:44.448Z,25.19
2018-09-30T15:39:15.473Z,24.85
2018-09-30T15:41:44.521Z,24.73
2018-09-30T15:44:18.075Z,24.46
2018-09-30T15:46:47.117Z,23.78
2018-09-30T15:49:16.181Z,23.42
2018-09-30T15:54:21.483Z,23.28
2018-09-30T15:59:29.857Z,22.93
2018-09-30T16:01:58.913Z,22.54
2018-09-30T16:04:27.974Z,22.01
2018-09-30T16:06:57.056Z,21.89
2018-09-30T16:09:26.286Z,21.55
2018-09-30T16:11:55.326Z,21.45
2018-09-30T16:14:26.292Z,21.01
2018-09-30T16:19:31.101Z,20.85
2018-09-30T16:22:01.056Z,20.38
2018-09-30T16:24:31.017Z,20.06
2018-09-30T16:27:00.081Z,19.95
2018-09-30T16:32:04.940Z,19.66
2018-09-30T16:34:33.969Z,19.45
2018-09-30T16:37:03.045Z,19.19
2018-09-30T16:39:32.128Z,18.96
2018-09-30T16:42:01.182Z,18.81
2018-09-30T16:44:30.311Z,18.60
2018-09-30T16:46:59.314Z,18.55
2018-09-30T16:49:28.368Z,18.20
2018-09-30T16:54:33.261Z,17.96
2018-09-30T16:57:03.316Z,17.72
2018-09-30T17:02:08.237Z,17.56
2018-09-30T17:04:37.285Z,17.17
2018-09-30T17:07:06.352Z,16.88
2018-09-30T17:09:36.361Z,16.68
2018-09-30T17:12:05.429Z,16.49
2018-09-30T17:14:34.485Z,16.45
2018-09-30T17:17:05.686Z,16.45
2018-09-30T17:19:34.738Z,16.22
2018-09-30T17:22:12.534Z,15.94
2018-09-30T17:27:17.315Z,15.76
2018-09-30T17:29:46.373Z,15.55
2018-09-30T17:32:15.433Z,15.41
2018-09-30T17:34:44.556Z,15.35
2018-09-30T17:37:13.618Z,15.06
2018-09-30T17:47:30.994Z,14.70
2018-09-30T17:52:35.841Z,14.17
2018-09-30T17:55:04.914Z,14.09
2018-09-30T18:00:19.184Z,13.75
2018-09-30T18:05:23.440Z,13.77
2018-09-30T18:07:52.499Z,13.84
2018-09-30T18:10:21.567Z,13.89
2018-09-30T18:12:50.618Z,13.83
2018-09-30T18:17:55.394Z,13.57
2018-09-30T18:20:24.465Z,13.27
2018-09-30T18:22:55.494Z,13.28
2018-09-30T18:25:26.464Z,13.16
2018-09-30T18:27:55.517Z,13.13
2018-09-30T18:30:24.610Z,13.05
2018-09-30T18:32:53.670Z,12.91
2018-09-30T18:35:22.732Z,12.83
2018-09-30T18:37:51.855Z,12.86
2018-09-30T18:40:20.936Z,12.79
2018-09-30T18:42:50.117Z,12.82
2018-09-30T18:45:19.147Z,12.88
2018-09-30T18:50:23.916Z,12.56
2018-09-30T18:52:52.977Z,12.57
2018-09-30T18:55:22.029Z,12.62
2018-09-30T18:57:51.088Z,12.49
2018-09-30T19:00:20.166Z,12.46
2018-09-30T19:02:51.145Z,12.32
2018-09-30T19:05:20.340Z,12.32
2018-09-30T19:07:49.273Z,12.29
2018-09-30T19:10:18.391Z,12.20
2018-09-30T19:12:48.471Z,12.15
2018-09-30T19:17:54.246Z,12.12
2018-09-30T19:20:25.263Z,12.13
2018-09-30T19:22:54.519Z,12.15
2018-09-30T19:27:59.388Z,12.01
2018-09-30T19:30:28.475Z,12.28
2018-09-30T19:32:57.534Z,12.13
2018-09-30T19:35:26.587Z,12.04
2018-09-30T19:38:00.181Z,11.90
2018-09-30T19:40:29.227Z,11.78
2018-09-30T19:45:34.170Z,11.58
2018-09-30T19:48:03.227Z,11.62
2018-09-30T19:50:32.264Z,11.61
2018-09-30T19:53:03.376Z,11.50
2018-09-30T19:55:37.553Z,11.39
2018-09-30T19:58:06.609Z,11.36
2018-09-30T20:00:35.652Z,11.24
2018-09-30T20:03:05.644Z,11.10
2018-09-30T20:05:34.887Z,11.15
2018-09-30T20:08:03.990Z,11.24
2018-09-30T20:10:33.147Z,11.24
2018-09-30T20:13:02.263Z,11.14
2018-09-30T20:15:31.290Z,11.00
2018-09-30T20:18:00.350Z,10.88
2018-09-30T20:20:29.392Z,10.80
2018-09-30T20:22:58.454Z,10.83
2018-09-30T20:25:27.483Z,10.97
2018-09-30T20:27:56.530Z,11.01
2018-09-30T20:30:25.682Z,11.03
2018-09-30T20:33:02.248Z,11.05
2018-09-30T20:35:39.254Z,11.12
2018-09-30T20:38:13.900Z,11.18
2018-09-30T20:40:43.386Z,11.29
2018-09-30T20:43:15.874Z,11.46
2018-09-30T20:45:46.921Z,11.61
2018-09-30T20:48:17.053Z,11.73
2018-09-30T20:50:46.406Z,11.69
2018-09-30T20:53:15.465Z,11.73
2018-09-30T20:55:49.185Z,11.95
2018-09-30T20:58:18.576Z,12.02
2018-09-30T21:00:53.993Z,12.06
2018-09-30T21:03:25.509Z,12.19
2018-09-30T21:05:55.487Z,12.27
2018-09-30T21:08:32.761Z,12.35
2018-09-30T21:11:12.710Z,12.34
2018-09-30T21:13:54.222Z,12.36
2018-09-30T21:16:27.342Z,12.39
2018-09-30T21:19:02.996Z,12.50
2018-09-30T21:21:37.536Z,12.42
2018-09-30T21:24:14.381Z,12.42
2018-09-30T21:26:53.044Z,12.21
2018-09-30T21:29:29.135Z,12.16
2018-09-30T21:32:05.722Z,12.15
2018-09-30T21:34:41.832Z,12.25
2018-09-30T21:37:22.407Z,12.41
2018-09-30T21:39:56.130Z,12.43
2018-09-30T21:42:33.612Z,12.39
2018-09-30T21:45:10.522Z,12.35
2018-09-30T21:55:31.397Z,12.50
2018-09-30T21:58:09.847Z,12.54
2018-09-30T22:00:49.329Z,12.57
2018-09-30T22:03:26.097Z,12.64
2018-09-30T22:11:24.009Z,13.06
2018-09-30T22:14:00.880Z,12.68
2018-09-30T22:16:31.475Z,12.62
2018-09-30T22:19:06.292Z,12.60
2018-09-30T22:21:47.049Z,12.68
2018-09-30T22:24:23.550Z,12.73
2018-09-30T22:26:52.684Z,12.83
2018-09-30T22:29:21.645Z,12.82
2018-09-30T22:31:50.706Z,12.86
2018-09-30T22:36:55.541Z,13.13
2018-09-30T22:39:24.599Z,13.07
2018-09-30T22:41:54.597Z,12.92
2018-09-30T22:44:24.621Z,12.91
2018-09-30T22:46:53.693Z,12.96
2018-09-30T22:49:22.738Z,12.93
2018-09-30T22:51:51.870Z,13.07
2018-09-30T22:54:20.896Z,13.09
2018-09-30T22:56:49.941Z,13.16
2018-09-30T22:59:21.021Z,13.13
2018-09-30T23:01:50.652Z,13.28
2018-09-30T23:09:31.238Z,13.33
2018-09-30T23:12:00.278Z,13.16
2018-09-30T23:14:29.334Z,13.00
2018-09-30T23:17:01.451Z,13.09
2018-09-30T23:19:30.514Z,13.30
2018-09-30T23:24:35.345Z,13.48
2018-09-30T23:27:04.392Z,13.37
2018-09-30T23:29:33.602Z,13.34
2018-09-30T23:32:02.698Z,13.37
2018-09-30T23:34:31.757Z,12.97
2018-09-30T23:37:00.825Z,13.00
2018-09-30T23:42:05.596Z,13.22
2018-09-30T23:44:34.649Z,12.99
2018-09-30T23:47:03.694Z,12.83
2018-09-30T23:49:32.761Z,12.90
2018-09-30T23:54:37.542Z,13.21
2018-09-30T23:57:06.627Z,12.85
